Hlavní strana
METAR-TAF:

METAR-TAF

Letiště :

Zonguldak, Turecko

zeměpisná šířka: 41-27N, zeměpisná délka: 031-48E, výška: 136 m

METAR: chybějící

Čas: 05:08 (02:08 UTC)

Předpověď počasí

Zpráva byla vytvořena před 12 hodinami a 28 minutami, v 13:40 UTC
Předpověď platná od 08 v 15 UTC do 08 v 24 UTC
Západoseverozápadní vítr 12 kt
Viditelnost 10 km a více
Skoro jasno ve výšce 1000 ft
Oblačno až skoro zataženo ve výšce 3000 ft
Oblačno až skoro zataženo ve výšce 8000 ft
slabé dešťové přeháňky
Změna
od 08 v 18 UTC do 08 v 20 UTC
vítr z různých směrů 2 kt

TAF: LTAS 081340Z 0815/0824 29012KT 9999 -SHRA FEW010 BKN030 BKN080 BECMG 0818/0820 VRB02KT

Stav a předpovědi počasí z více než 4 000 letišť (zprávy METAR a TAF).

Červené a žluté tečky na mapě představují dostupné meteorologické stanice.

Když kurzor umístíte na tečku, zobrazí se název stanice.

Pak kliknutím zobrazíte stav a předpověď počasí.

Chcete-li změnit mapu, kliknutím na zelené tlačítko se znaménkem +mapu přiblížíte, kliknutím na zelené tlačítko se znaménkem – mapu oddálíte a kliknutím na zelené šipky přejdete na sousední mapy.


METAR-TAF: